24v Dc Motor Import to India

Connect2India provides real time data for 24v Dc Motor import, historical 24v Dc Motor import analysis, current demand in overseas countries and import price of 24v Dc Motor.

24v Dc Motor

24v Dc Motor import data

Date HS Code Product Description Origin Port Destination Port Quantity Value (INR in Million) Unit Per Unit (INR)
2016-09-27 84818090 24V AC/DC MODULATING MOTORIZED ACTUATOR POWERCONSUMP.5VA-IP54 (PRESSURE INDEPENDENT CUM CONTROL VALVE AND ACCESSORIES) DENMARK Delhi Air Cargo 3 0.0069 PCS 2307.0
2016-09-27 85030090 DC MOTOR WHEEL MTRMP250 800W 24V 6.6KM/H NO BRAKE(USED FOR INDL.MULTICLEAN MACHINE) ITALY Chennai Air Cargo 1 0.0354 NOS 35397.0
2016-09-27 85013119 BREWER MOTOR TYPE(404.63-24V DC(3322502000)(4050982175322) GERMANY Bangalore ICD 40 0.0435 PCS 1086.0
2016-09-28 85011019 0007133804 MOTOR,DC-24V 20NCM(PARTS FOR PRINTER FOR ADP) NETHERLANDS Delhi Air Cargo 1 0.0035 PCS 3482.0
2016-09-28 85011019 DC MOTOR DIA. 63MM, 24V/30W, 40RPM, GEAR BOX RIGHT, AXLE 24.5MM VER B-2 1817364-REV CHINA Bombay Air Cargo 576 0.8794 PCS 1526.0
2016-09-29 85011019 ACTUATOR MOTOR FOR COFFEE VENDING MACHINE(24V DC,14000RPM,50MM STROKE.BRASS NUT, HYLAM NUT WITH MOLEX PIN)(P/N:10110001) HONG KONG Banglore Air Cargo 500 0.5222 NOS 1044.0
2016-09-30 85011019 DC MOTOR 24V/30W CHINA Nhava Sheva Sea 576 0.7546 PCS 1310.0
2016-10-01 85014090 (MOTOR) DC MOTOR 24V 3000W WITH STARTER SWITHC KAAL2AHB003 BNCLN24T / TAIWAN Bombay Air Cargo 2 0.0353 PCS 17670.0
2016-10-07 85015390 MOTOR 24V DC 8NM-957.050.716-PARTS FOR AIRJET LOOM TEXTILE MACHINE CZECH REPUBLIC Chennai Air Cargo 1 0.067 NOS 66993.0
2016-10-07 85030029 LD 10 SERIES 24V DC MOTOR - MODEL LD10-12-A6-16-506.756-CB6( PART OF MOTOR FOR MANUFATURING PURPOSE) CHINA Banglore Air Cargo 5 0.0145 PCS 2897.0
2016-10-07 85030029 LD 10 SERIES 24V DC MOTOR MODEL LD10-24-AC-16-406.556-CB6( PART OF MOTOR FOR MANUFATURING PURPOSE) CHINA Banglore Air Cargo 5 0.0137 PCS 2740.0
2016-10-07 85011019 BO-104650052 DC-MOTOR BG44X50SI 24V-PLG42S I=6,25:1 GERMANY Banglore Air Cargo 1 0.038 NOS 38047.0
2016-10-07 85014090 (MOTOR) DC MOTOR 24V 3000W WITH STARTER SWITCH KAAL2AHB003 BNCLN24T / TAIWAN Bombay Air Cargo 1 0.0183 PCS 18284.0
2016-10-10 84313910 PARTS FOR ELEVATOR - MOTOR SKHR80 WITH 24V DC BRAKE F, QKS9VF (53102269) SWITZERLAND Bombay Air Cargo 1 0.0184 UNT 18426.0
2016-10-13 85011019 DC MOTOR - FL57BL02-24V-2500APGX CHINA Ahmedabad 250 0.4047 PCS 1618.0
2016-10-13 85011019 DC MOTOR - FL57BL03-24V-2500APGX(REV.A) CHINA Ahmedabad 150 0.3095 PCS 2063.0
2016-10-13 85013210 MOTOR 24V 3KW AMK4691 ( DC MOTOR FOR HYDRAULIC POWER UNIT) CHINA Delhi Air Cargo 2 0.0198 PCS 9909.0
2016-10-15 84131990 MOTOR PUMP (WATER,DC 24V, HEATING)- SPARE PARTS FOR TRUCK REFRIGERATION UNIT KOREA,REPUBLIC OF Nhava Sheva Sea 100 0.223 UNT 2230.0
2016-10-15 85011019 DC MOTOR DIA63:24V : 23.1W (PARTS FOR COLOR PRODUCTION PRINTER) JAPAN Bombay Air Cargo 1 0.0224 PCS 22388.0
2016-10-17 84137099 CENTRIGUGAL EL/BLOWER C 25 LG 24V DC 0.8KW -1400RPM LEFT DIRECTION ( BLOWER MOTOR FOR SMALL BOATS ) ITALY Chennai Air Cargo 1 0.1418 NOS 141833.0
2016-10-17 84137099 CENTRIGUGAL EL/BLOWER C 25 RO 24V DC 0.8KW -1400RPM RIGHT DIRECTION ( BLOWER MOTOR FOR SMALL BOATS ) ITALY Chennai Air Cargo 1 0.1418 NOS 141833.0
2016-10-17 85015290 SY10028-24 DC MOTOR -(24V 400W) CHINA Chennai Sea 25 0.0314 UNT 1255.0
2016-10-17 85013119 MOTOR 24V DC WORM GEARED BW022 MODEL SVM80 ITALY Chennai Sea 1000 0.9843 NOS 984.0
2016-10-18 84138190 PUMP MOTOR 24/24V DC 4.8 KW 114330 UNITED STATES Bombay Air Cargo 1 0.039 PCS 38987.0
2016-10-18 85359090 GEAR MOTOR 24:1, BRUSHLESS, 24V DC, DUNKER (REF NO. 4172370- 5PCS) (ACTUAL USER NOT FOR SALE) GERMANY Chennai Air Cargo 5 0.1454 PCS 29085.0
2016-10-19 84313910 PARTS FOR ELEVATOR -BL-B105AAQX01 1 X DUNKER PREWIRED DC MOTOR GR 63 X 55 IP54, 24V CC -CABLE 2000MM (SPARE PARTS FOR KI ITALY Bombay Air Cargo 6 0.2395 UNT 39916.0
2016-10-19 85011019 DC MOTOR 24V TAIWAN Bangalore ICD 10 0.0079 PCS 790.0
2016-10-20 85011019 DC MOTOR 24V/30W CHINA Nhava Sheva Sea 1152 1.4653 PCS 1271.0
2016-10-20 85013119 DC MOTOR 24V CHINA Nhava Sheva Sea 500 0.0741 PCS 148.0
2016-10-21 84768990 MIXER MOTOR 24V DC SHAFT D.4 (RV-0090003023) (SPARE PARTS FOR VENDING MACHINES) ITALY Delhi Air Cargo 75 0.0642 NOS 856.0
2016-10-21 84818090 24V AC/DC MODULATING MOTORIZED ACTUATOR POWERCONSUMP. 5VA-IP54 CLASS II (PRESSURE INDEPENDENT CUM CONTROL VALVE AND ACCE DENMARK Patparganj 17 0.0357 PCS 2102.0
2016-10-21 84818090 24V AC/DC MODULATING MOTORIZED ACTUATOR POWERCONSUMP.5VA-IP54 CLASS II (PRESSURE INDEPENDENT CUM CONTROL VALVE AND ACCES DENMARK Patparganj 15 0.0315 PCS 2102.0
2016-10-21 85011019 ACTUATOR MOTOR FOR COFFEE VENDING MACHINE(24V DC,14000RPM,50MM STROKE.BRASS NUT, HYLAM NUT WITH MOLEX PIN)(P/N:10110001) TAIWAN Bangalore ICD 3500 3.4521 NOS 986.0
2016-10-21 85011019 DC MICRO MOTOR (RS-558HJ2-2728RW) (24V WITH WORM) CHINA Chennai Sea 7000 1.9621 PCS 280.0
2016-10-22 85011019 DC MOTOR 24V 19.6W (PARTS FOR B & W COPIER MACHINE) JAPAN Bombay Air Cargo 1 0.0012 PCS 1150.0
2016-10-22 85011019 DC MOTOR 24V(PARTS FOR COLOR COPIER MACHINE) JAPAN Bombay Air Cargo 2 0.001 PCS 502.0
2016-10-24 85013119 DC MOTOR FL57BL02-24V-2500APGX CHINA Nhava Sheva Sea 250 0.359 PCS 1435.0
2016-10-24 85013119 DC MOTOR FL57BL03-24V-2500APGX (REV.A) CHINA Nhava Sheva Sea 100 0.183 PCS 1829.0
2016-10-27 85011019 BATTERY CHARGER KIT FOR 24V DC MOTORS ( PARTS FOR ELECTORIC GATE OPERATOR) ITALY Cochin Sea 2 0.006 PCS 3010.0
2016-10-27 85013119 MOTOR BRAIN WAVE DC 030 24V-S7000(SPARES AND CHIP MODULE) UNITED ARAB EMIRATES Banglore Air Cargo 3 0.0045 PCS 1501.0
2016-11-01 84818090 24V AC/DC MODULATING MOTORIZED ACTUATOR POWERCONSUMP 5VA-IP54 CLASS II (AUTOMATIC BALANCING & PRESSURE INDEPENDENT CUM C DENMARK Delhi Air Cargo 38 0.0826 PCS 2173.0
2016-11-01 95089000 SPARE PART FOR TOY CAR-MOTORS 24V DC 200W (MODE OF PLASTICS) CHINA Nhava Sheva Sea 20 0.0768 NOS 3841.0
2016-11-02 85011019 DC MICRO MOTOR (RS-558HJ2-2728RW) (24V WITH WORM) (ACTUAL USER) CHINA Chennai Sea 7000 1.9634 PCS 280.0
2016-11-03 85011019 7133804 MOTOR,DC-24V 20NCM(PARTS FOR PRINTER FOR ADP) JAPAN Delhi Air Cargo 1 0.0035 PCS 3451.0
2016-11-03 85011019 DC MOTOR 24V AX04-0154 JAPAN Nhava Sheva Sea 1 5.0E-4 PCS 485.0
2016-11-04 84129090 DC MOTOR 24V 2.2KW PART NO.PC22002G322 MAKE SHANGHAI YIZHONG END USE-FOR HYDRAULIC & PARTS CHINA Patparganj 30 0.045 NOS 1500.0
2016-11-05 85011019 SX-123 24V DC FLANGE/BASE 1/2 HP 650 RPM MOTOR (FOR INDUSTRIAL METAL REEL) (FOR CAPTIVE CONSUMPTION) UNITED STATES Delhi Air Cargo 4 0.0757 NOS 18925.0
2016-11-05 85013119 BREWER MOTOR TYPE(404.63-24V DC(3322502000)(4050982175322) GERMANY Bangalore ICD 40 0.0423 PCS 1057.0
2016-11-07 85364900 SURGE SUPPRESSOR, VARISTOR WITH LED, AC 24. . .48V, DC 12. . .24V, F. CONT. RELAYS A. MOTOR CONT. SZ S00. 3RT2916-1JJ GERMANY Banglore Air Cargo 5 7.0E-4 PCS 133.0
2016-11-07 85364900 SURGE SUPPRESSOR, VARISTOR WITH LED, AC 24. . .48V, DC 12. . .24V, FOR MOTOR CONTACTORS SZ S0, 3RT2926-1JJ00 GERMANY Banglore Air Cargo 1 2.0E-4 PCS 160.0
2016-11-09 85012000 KITCHEN EQUIPMENT PARTS : MOTOR, W/GEAR REDUCTION, 24V DC - 9004441-1 CHINA Nhava Sheva Sea 3 0.0097 PCS 3224.0

Related products

24v Dc Motor Trade Data - Indian Ports

S. No Product Product Code Quantity Value (INR in Million) Unit Origin Port Destination Port
DC FAN MOTOR AXIAL MM19:24V (PARTS OF DIGITAL DUPLICATOR) 84145990 2 0.0023 PCS JAPAN Bombay Air Cargo
MOTOR 24V/DC;1500U/MIN(S/P FOR HIGH VACUUM COATING SYSTEM TYPE TOPMET 2850 HIRES(EPCG LIC.NO.0530154576 DT. 85013119 1 0.0553 PCS GERMANY Delhi Air Cargo
(MOTOR) DC MOTOR 24V 3000W WITH STARTER SWITCH KAAL2AHB003 BNCLN24T 85014090 1 0.0291 PCS TAIWAN Bombay Air Cargo
SY10028 DC MOTOR ( 24V 400W) 85015290 40 0.0502 PCS CHINA Chennai Sea
PN-129717(TL-SERIES 24V DC BRAKE SERVO MOTOR(TLY-A2530P-BJ64AA)PARTS OF P.L. CONTROLLER FOR RETAIL SALE) 85015190 1 0.0173 NOS MEXICO Delhi Air Cargo
DC MOTOR SR365SD-1995-51D CAPECITY 24V 85011019 10000 0.4423 PCS CHINA Nhava Sheva Sea
DC MOTOR DIA. 63MM, 24V/30W, 40RPM, GEAR BOX RIGHT, AXLE 24.5MM VER B-2 1817364-REV 85011019 576 0.9356 PCS CHINA Bombay Air Cargo
DC MOTOR 24V (PARTS FOR COLOR COPIER MACHINE) 85011019 4 0.002 PCS JAPAN Bombay Air Cargo
DC MOTOR : FL57BL02-24V-2500APGX 85013119 250 0.3974 NOS CHINA Ahmedabad
DC MOTOR : FL57BL03-24V-2500APGX(REV.A) 85013119 250 0.5065 NOS CHINA Ahmedabad
GEAR MOTOR 24:1, BRUSHLESS, 24V DC, DUNKER (REF NO. 4172370- 2PCS) (ACTUAL USER NOT FOR SALE) 85359090 2 0.0539 PCS GERMANY Chennai Air Cargo
PN-129704(TL-SERIES 24V DC BRAKE SERVO MOTOR(TLY-A130P-BJ64AA)PARTS OF P.L. CONTROLLER FOR RETAIL SALE) 85015190 1 0.0127 NOS CHINA Delhi Air Cargo
PN-129713(TL-SERIES 24V DC BRAKE SERVO MOTOR(TLY-A230P-BJ64AA)PARTS OF P.L. CONTROLLER FOR RETAIL SALE) 85015190 1 0.0144 NOS CHINA Delhi Air Cargo
PN-129720(TL-SERIES 24V DC BRAKE SERVO MOTOR(TLY-A2540P-BJ64AA)PARTS OF P.L. CONTROLLER FOR RETAIL SALE) 85015290 1 0.0183 NOS CHINA Delhi Air Cargo
(MOTOR) DC MOTOR 24V 3000W WITH STARTER SWITCH KAAL2AHB003 BNCLN24T 85014090 2 0.0309 PCS TAIWAN Bombay Air Cargo
(MOTOR) DC MOTOR 24V 3000W WITH STARTER SWITCH BNCLN24T KAAL2AHB003 85014090 4 0.0618 PCS TAIWAN Bombay Air Cargo
DC MOTOR-57BL02-24V-10000B.001 85011019 12 0.065 PCS CHINA Cochin Air Cargo

Looking to import 24v Dc Motor?

With end to end global trade solutions from Connect2India, we enable Indian SMEs to start and grow their business globally

Yearwise analysis of 24v Dc Motor import to India

Below is the detailed list of 24v Dc Motor import to India with quantity, volume, price, origin port and the destination port.

Increase your 24v Dc Motor imports with steady access to working capital with our import financing solutions at Connect2India.

Looking to import 24v Dc Motor from genuine and best quality Indian suppliers?

Graphical representation for 24v Dc Motor import

24v Dc Motor - Recent import data

How connect2india can help you import 24v Dc Motor?

Connect2India can help you find 24v Dc Motor suppliers / exporters in more than 100 countries, arrange import orders for 24v Dc Motor, find the most effective market to import 24v Dc Motor, help you out with procedures and formalities required to import 24v Dc Motor in India and also assist you in 24v Dc Motor shipment and logistics. Our trade experts are always available for any help regarding the import of 24v Dc Motor and its products. If you want more information, please get in touch with our trade experts here

People Also Ask

Whom can I contact for more information on 24v Dc Motor import to India?

You can submit your requirement on Connect2India and our representative will get in touch with you with more information about 24v Dc Motor. Alternatively, you can call us @ +91-7876759999 or email us to info@connect2India.com

Which is the most popular Indian port for 24v Dc Motor import?

Bombay Air Cargo is the most popular port for 24v Dc Motor import to India

What are the top three import shipments of 24v Dc Motor traded to India?

Following are the top three import shipments of 24v Dc Motor traded to India :

  • 24V AC/DC MODULATING MOTORIZED ACTUATOR POWERCONSUMP.5VA-IP54 (PRESSURE INDEPENDENT CUM CONTROL VALVE AND ACCESSORIES)
  • DC MOTOR WHEEL MTRMP250 800W 24V 6.6KM/H NO BRAKE(USED FOR INDL.MULTICLEAN MACHINE)
  • BREWER MOTOR TYPE(404.63-24V DC(3322502000)(4050982175322)